Time;durP1;ratioP1;P1;durP2;ratioP2;P2;SDS_P1;SDS_P2;PMS_P1;PMS_P2;Temp;Humidity;BMP_temperature;BMP_pressure;BME280_temperature;BME280_humidity;BME280_pressure;Samples;Min_cycle;Max_cycle;Signal;HPM_P1;HPM_P2
2021/12/29 00:00:38;;;;;;;152.05;57.45;;;;;;;;;;5068863;28;20029;-48
2021/12/29 00:03:04;;;;;;;209.48;61.38;;;;;;;;;;5067280;28;20194;-49
2021/12/29 00:05:30;;;;;;;280.05;69.75;;;;;;;;;;5068626;28;20031;-48
2021/12/29 00:07:57;;;;;;;188.43;70.07;;;;;;;;;;5068760;28;20033;-48
2021/12/29 00:10:24;;;;;;;148.55;54.20;;;;;;;;;;5067381;28;20325;-48
2021/12/29 00:12:52;;;;;;;192.15;57.45;;;;;;;;;;5065824;28;20055;-50
2021/12/29 00:15:19;;;;;;;237.98;65.25;;;;;;;;;;5068107;28;20019;-49
2021/12/29 00:17:46;;;;;;;229.95;57.67;;;;;;;;;;5066431;28;20021;-48
2021/12/29 00:20:13;;;;;;;263.25;63.00;;;;;;;;;;5066773;28;20032;-54
2021/12/29 00:22:39;;;;;;;192.35;57.38;;;;;;;;;;5067203;28;20028;-48
2021/12/29 00:25:06;;;;;;;170.40;57.33;;;;;;;;;;5066973;28;20056;-48
2021/12/29 00:27:33;;;;;;;165.15;52.90;;;;;;;;;;5066935;28;20071;-47
2021/12/29 00:30:02;;;;;;;130.65;49.75;;;;;;;;;;5067565;28;20139;-48
2021/12/29 00:32:30;;;;;;;165.60;55.05;;;;;;;;;;5070541;28;20131;-48
2021/12/29 00:34:56;;;;;;;186.07;47.45;;;;;;;;;;5068443;28;20369;-48
2021/12/29 00:37:22;;;;;;;210.27;58.03;;;;;;;;;;5068671;28;20023;-49
2021/12/29 00:39:49;;;;;;;179.25;50.63;;;;;;;;;;5068287;28;20032;-47
2021/12/29 00:42:15;;;;;;;249.95;50.78;;;;;;;;;;5068778;28;20559;-48
2021/12/29 00:44:41;;;;;;;182.90;51.70;;;;;;;;;;5068203;28;20039;-47
2021/12/29 00:47:07;;;;;;;163.23;58.75;;;;;;;;;;5066376;28;20017;-49
2021/12/29 00:49:35;;;;;;;149.30;55.75;;;;;;;;;;5066551;28;20032;-48
2021/12/29 00:52:05;;;;;;;176.30;54.05;;;;;;;;;;5067350;28;20040;-47
2021/12/29 00:54:31;;;;;;;148.00;52.20;;;;;;;;;;5066729;28;20028;-48
2021/12/29 00:56:57;;;;;;;164.57;52.53;;;;;;;;;;5065903;28;20321;-47
2021/12/29 00:59:24;;;;;;;151.70;48.10;;;;;;;;;;5065979;28;20417;-47
2021/12/29 01:01:50;;;;;;;324.40;55.35;;;;;;;;;;5066076;28;20560;-47
2021/12/29 01:04:17;;;;;;;164.15;57.72;;;;;;;;;;5066039;28;20078;-49
2021/12/29 01:06:45;;;;;;;157.02;58.13;;;;;;;;;;5066296;28;20021;-49
2021/12/29 01:09:12;;;;;;;204.18;68.25;;;;;;;;;;5066100;28;20152;-49
2021/12/29 01:11:38;;;;;;;141.13;50.85;;;;;;;;;;5066220;28;20016;-48
2021/12/29 01:14:05;;;;;;;164.73;58.13;;;;;;;;;;5067255;28;20825;-47
2021/12/29 01:19:08;;;;;;;154.25;50.70;;;;;;;;;;5066863;28;20078;-48
2021/12/29 01:21:35;;;;;;;197.27;66.60;;;;;;;;;;5067061;28;20527;-48
2021/12/29 01:24:02;;;;;;;183.52;57.55;;;;;;;;;;5065155;28;20058;-48
2021/12/29 01:26:28;;;;;;;153.40;53.72;;;;;;;;;;5066982;28;20031;-49
2021/12/29 01:28:54;;;;;;;193.95;51.97;;;;;;;;;;5066810;28;20075;-49
2021/12/29 01:31:20;;;;;;;160.98;62.53;;;;;;;;;;5064644;28;20484;-49
2021/12/29 01:33:46;;;;;;;144.73;55.22;;;;;;;;;;5063496;28;20047;-50
2021/12/29 01:36:12;;;;;;;174.35;61.90;;;;;;;;;;5063106;28;20020;-49
2021/12/29 01:38:38;;;;;;;222.00;53.97;;;;;;;;;;5063273;28;20024;-48
2021/12/29 01:41:05;;;;;;;164.80;47.55;;;;;;;;;;5063114;28;20300;-48
2021/12/29 01:43:31;;;;;;;132.18;47.65;;;;;;;;;;5063422;28;20037;-48
2021/12/29 01:45:57;;;;;;;194.25;52.15;;;;;;;;;;5062887;28;20113;-50
2021/12/29 01:48:26;;;;;;;124.60;48.72;;;;;;;;;;5062901;28;20024;-49
2021/12/29 01:50:52;;;;;;;148.25;47.22;;;;;;;;;;5063167;28;20046;-49
2021/12/29 01:53:27;;;;;;;121.03;45.90;;;;;;;;;;5063171;28;20039;-49
2021/12/29 01:55:53;;;;;;;147.10;49.47;;;;;;;;;;5091421;28;20049;-51
2021/12/29 01:58:20;;;;;;;145.60;46.47;;;;;;;;;;5093850;28;20032;-52
2021/12/29 02:00:46;;;;;;;124.60;50.00;;;;;;;;;;5093609;28;20024;-52
2021/12/29 02:03:12;;;;;;;105.47;43.85;;;;;;;;;;5093625;28;20032;-51
2021/12/29 02:05:41;;;;;;;119.90;48.63;;;;;;;;;;5093635;28;20484;-50
2021/12/29 02:08:07;;;;;;;107.03;43.38;;;;;;;;;;5093484;28;20064;-49
2021/12/29 02:10:41;;;;;;;117.57;44.22;;;;;;;;;;5093602;28;20017;-51
2021/12/29 02:13:08;;;;;;;102.88;44.78;;;;;;;;;;5093603;28;20017;-49
2021/12/29 02:15:34;;;;;;;96.10;42.50;;;;;;;;;;5093511;28;20489;-51
2021/12/29 02:18:00;;;;;;;116.40;51.70;;;;;;;;;;5093668;28;20056;-51
2021/12/29 02:20:27;;;;;;;91.28;36.25;;;;;;;;;;5093536;28;20020;-52
2021/12/29 02:23:17;;;;;;;110.32;49.70;;;;;;;;;;5093341;28;20465;-51
2021/12/29 02:25:50;;;;;;;133.93;59.03;;;;;;;;;;5093043;28;20085;-48
2021/12/29 02:28:18;;;;;;;137.15;61.95;;;;;;;;;;5093333;28;20056;-49
2021/12/29 02:30:46;;;;;;;118.57;52.58;;;;;;;;;;5093372;28;20046;-50
2021/12/29 02:33:14;;;;;;;101.88;45.00;;;;;;;;;;5093430;28;20024;-51
2021/12/29 02:35:46;;;;;;;122.03;54.70;;;;;;;;;;5093352;28;20020;-48
2021/12/29 02:38:26;;;;;;;121.70;52.08;;;;;;;;;;5093297;28;20454;-51
2021/12/29 02:40:54;;;;;;;107.10;44.83;;;;;;;;;;5093362;28;20024;-49
2021/12/29 02:43:22;;;;;;;112.50;48.78;;;;;;;;;;5093179;28;20032;-51
2021/12/29 02:45:51;;;;;;;98.18;43.15;;;;;;;;;;5093114;28;20032;-49
2021/12/29 02:48:18;;;;;;;97.13;44.40;;;;;;;;;;5093090;28;20028;-51
2021/12/29 02:50:45;;;;;;;111.60;48.80;;;;;;;;;;5093192;28;20133;-51
2021/12/29 02:53:12;;;;;;;93.95;39.78;;;;;;;;;;5093007;28;20363;-49
2021/12/29 02:55:41;;;;;;;94.65;36.72;;;;;;;;;;5093148;28;20028;-50
2021/12/29 02:58:07;;;;;;;81.10;35.25;;;;;;;;;;5093049;28;20405;-50
2021/12/29 03:00:33;;;;;;;99.85;44.08;;;;;;;;;;5091793;28;20037;-51
2021/12/29 03:02:59;;;;;;;77.03;33.55;;;;;;;;;;5092884;28;20040;-51
2021/12/29 03:05:26;;;;;;;76.45;31.13;;;;;;;;;;5093086;28;20027;-46
2021/12/29 03:07:54;;;;;;;82.13;35.45;;;;;;;;;;5093145;28;20024;-50
2021/12/29 03:10:20;;;;;;;81.05;34.45;;;;;;;;;;5093012;28;20040;-47
2021/12/29 03:12:46;;;;;;;83.45;37.38;;;;;;;;;;5092991;28;20466;-50
2021/12/29 03:15:12;;;;;;;94.50;41.08;;;;;;;;;;5092880;28;20028;-51
2021/12/29 03:17:38;;;;;;;99.47;42.30;;;;;;;;;;5093020;28;20027;-48
2021/12/29 03:20:04;;;;;;;104.43;42.55;;;;;;;;;;5093078;28;20036;-46
2021/12/29 03:22:33;;;;;;;103.85;46.58;;;;;;;;;;5092839;28;20397;-52
2021/12/29 03:24:59;;;;;;;118.68;52.75;;;;;;;;;;5092963;28;20024;-50
2021/12/29 03:27:25;;;;;;;102.82;41.67;;;;;;;;;;5092664;28;20051;-49
2021/12/29 03:29:51;;;;;;;98.45;43.92;;;;;;;;;;5092754;28;20111;-46
2021/12/29 03:32:33;;;;;;;74.30;32.95;;;;;;;;;;5092802;28;20035;-51
2021/12/29 03:35:00;;;;;;;85.38;41.38;;;;;;;;;;5092776;28;20027;-52
2021/12/29 03:37:26;;;;;;;78.35;35.30;;;;;;;;;;5093799;28;20051;-51
2021/12/29 03:39:52;;;;;;;86.93;39.50;;;;;;;;;;5095107;28;20024;-52
2021/12/29 03:42:18;;;;;;;95.03;43.10;;;;;;;;;;5096376;28;20017;-52
2021/12/29 03:44:44;;;;;;;74.30;31.02;;;;;;;;;;5096203;28;20028;-52
2021/12/29 03:47:10;;;;;;;77.65;33.25;;;;;;;;;;5096104;28;20024;-52
2021/12/29 03:49:36;;;;;;;78.30;38.28;;;;;;;;;;5096295;28;20073;-52
2021/12/29 03:52:04;;;;;;;63.95;32.10;;;;;;;;;;5096346;28;20020;-51
2021/12/29 03:54:30;;;;;;;66.15;31.90;;;;;;;;;;5096153;28;20063;-52
2021/12/29 03:57:00;;;;;;;66.80;32.63;;;;;;;;;;5095941;28;20496;-51
2021/12/29 03:59:29;;;;;;;62.95;30.65;;;;;;;;;;5096124;28;20169;-52
2021/12/29 04:01:56;;;;;;;69.95;33.97;;;;;;;;;;5095783;28;20028;-50
2021/12/29 04:04:22;;;;;;;60.05;30.10;;;;;;;;;;5096139;28;20443;-52
2021/12/29 04:06:49;;;;;;;69.50;34.05;;;;;;;;;;5095894;28;20070;-50
2021/12/29 04:09:18;;;;;;;77.22;37.30;;;;;;;;;;5096043;28;20028;-51
2021/12/29 04:11:50;;;;;;;67.32;32.83;;;;;;;;;;5095836;28;20054;-49
2021/12/29 04:14:16;;;;;;;64.72;29.90;;;;;;;;;;5095733;28;20553;-50
2021/12/29 04:16:45;;;;;;;55.67;29.75;;;;;;;;;;5095542;28;20059;-48
2021/12/29 04:19:17;;;;;;;55.17;28.77;;;;;;;;;;5095650;28;20032;-50
2021/12/29 04:21:47;;;;;;;70.22;33.65;;;;;;;;;;5095539;28;20039;-50
2021/12/29 04:24:14;;;;;;;62.85;30.17;;;;;;;;;;5095429;28;20572;-51
2021/12/29 04:26:40;;;;;;;62.80;32.65;;;;;;;;;;5095365;28;20032;-50
2021/12/29 04:29:07;;;;;;;72.88;38.28;;;;;;;;;;5095489;28;20064;-51
2021/12/29 04:31:33;;;;;;;58.47;31.15;;;;;;;;;;5095461;28;20020;-50
2021/12/29 04:33:59;;;;;;;57.00;29.67;;;;;;;;;;5095328;28;20054;-48
2021/12/29 04:36:26;;;;;;;71.72;37.28;;;;;;;;;;5095543;28;20450;-48
2021/12/29 04:38:53;;;;;;;72.15;37.22;;;;;;;;;;5095335;28;20028;-51
2021/12/29 04:41:19;;;;;;;63.70;32.05;;;;;;;;;;5095184;28;20465;-51
2021/12/29 04:43:45;;;;;;;65.78;34.35;;;;;;;;;;5095208;28;20039;-49
2021/12/29 04:46:17;;;;;;;61.67;31.75;;;;;;;;;;5095132;28;20844;-51
2021/12/29 04:48:50;;;;;;;64.82;31.65;;;;;;;;;;5094869;28;20032;-50
2021/12/29 04:51:24;;;;;;;65.10;33.20;;;;;;;;;;5095101;28;20059;-52
2021/12/29 04:53:50;;;;;;;76.65;35.30;;;;;;;;;;5094955;28;20032;-50
2021/12/29 04:56:16;;;;;;;78.38;36.28;;;;;;;;;;5094827;28;20024;-51
2021/12/29 04:58:42;;;;;;;96.05;39.05;;;;;;;;;;5094806;28;20033;-51
2021/12/29 05:01:09;;;;;;;83.50;38.00;;;;;;;;;;5094794;28;20020;-50
2021/12/29 05:03:37;;;;;;;78.22;35.17;;;;;;;;;;5094869;28;20020;-57
2021/12/29 05:08:32;;;;;;;78.93;40.13;;;;;;;;;;5094871;28;20596;-51
2021/12/29 05:11:00;;;;;;;72.05;35.35;;;;;;;;;;5094796;28;20020;-53
2021/12/29 05:13:32;;;;;;;69.20;35.13;;;;;;;;;;5094701;28;20023;-51
2021/12/29 05:15:58;;;;;;;65.30;32.88;;;;;;;;;;5094573;28;20032;-51
2021/12/29 05:18:25;;;;;;;65.45;33.38;;;;;;;;;;5094796;28;20024;-49
2021/12/29 05:20:52;;;;;;;65.78;33.17;;;;;;;;;;5094388;28;20020;-47
2021/12/29 05:23:21;;;;;;;68.43;32.50;;;;;;;;;;5094422;28;20474;-52
2021/12/29 05:25:49;;;;;;;65.45;34.55;;;;;;;;;;5094265;28;20023;-51
2021/12/29 05:28:17;;;;;;;70.80;34.17;;;;;;;;;;5094222;28;20534;-52
2021/12/29 05:30:44;;;;;;;66.18;32.63;;;;;;;;;;5094367;28;20028;-51
2021/12/29 05:33:10;;;;;;;65.00;33.45;;;;;;;;;;5094307;28;20024;-51
2021/12/29 05:35:37;;;;;;;66.30;34.28;;;;;;;;;;5094470;28;20470;-52
2021/12/29 05:38:03;;;;;;;63.47;30.95;;;;;;;;;;5094130;28;20024;-50
2021/12/29 05:40:29;;;;;;;69.50;34.47;;;;;;;;;;5094121;28;20028;-50
2021/12/29 05:42:56;;;;;;;65.07;32.05;;;;;;;;;;5094017;28;20020;-51
2021/12/29 05:45:22;;;;;;;59.60;29.50;;;;;;;;;;5093950;28;20473;-50
2021/12/29 05:47:49;;;;;;;57.13;30.23;;;;;;;;;;5094143;28;20020;-51
2021/12/29 05:50:16;;;;;;;59.00;29.88;;;;;;;;;;5094034;28;20366;-50
2021/12/29 05:52:42;;;;;;;57.60;30.05;;;;;;;;;;5093939;28;20016;-51
2021/12/29 05:55:09;;;;;;;72.80;36.22;;;;;;;;;;5093858;28;20043;-51
2021/12/29 05:57:35;;;;;;;73.40;36.28;;;;;;;;;;5093599;28;20509;-49
2021/12/29 06:00:02;;;;;;;90.65;42.92;;;;;;;;;;5093319;28;20078;-51
2021/12/29 06:02:28;;;;;;;135.05;61.10;;;;;;;;;;5093725;28;20020;-50
2021/12/29 06:04:55;;;;;;;118.75;54.45;;;;;;;;;;5092053;28;20160;-52
2021/12/29 06:07:21;;;;;;;76.70;39.35;;;;;;;;;;5093839;28;20103;-48
2021/12/29 06:09:47;;;;;;;76.65;39.50;;;;;;;;;;5093803;28;20059;-47
2021/12/29 06:12:15;;;;;;;63.13;34.95;;;;;;;;;;5093602;28;20020;-46
2021/12/29 06:14:44;;;;;;;60.05;30.88;;;;;;;;;;5093914;28;20501;-50
2021/12/29 06:17:10;;;;;;;59.65;34.33;;;;;;;;;;5093601;28;20026;-50
2021/12/29 06:19:36;;;;;;;61.17;33.67;;;;;;;;;;5093694;28;20020;-51
2021/12/29 06:22:04;;;;;;;59.55;33.53;;;;;;;;;;5093783;28;20385;-51
2021/12/29 06:24:32;;;;;;;68.97;37.15;;;;;;;;;;5093348;28;20481;-50
2021/12/29 06:26:58;;;;;;;75.95;38.55;;;;;;;;;;5093096;28;20119;-51
2021/12/29 06:29:26;;;;;;;91.97;47.95;;;;;;;;;;5093479;28;20052;-50
2021/12/29 06:31:52;;;;;;;95.03;50.22;;;;;;;;;;5093565;28;20060;-47
2021/12/29 06:34:18;;;;;;;101.90;56.25;;;;;;;;;;5093534;28;20028;-50
2021/12/29 06:36:44;;;;;;;106.93;59.42;;;;;;;;;;5093281;28;20389;-48
2021/12/29 06:39:10;;;;;;;108.60;60.78;;;;;;;;;;5093467;28;20089;-50
2021/12/29 06:41:36;;;;;;;103.30;60.70;;;;;;;;;;5093294;28;20077;-49
2021/12/29 06:44:03;;;;;;;78.78;46.00;;;;;;;;;;5093265;28;20036;-50
2021/12/29 06:46:29;;;;;;;85.78;47.50;;;;;;;;;;5093064;28;20027;-48
2021/12/29 06:48:55;;;;;;;87.88;48.75;;;;;;;;;;5093327;28;20028;-50
2021/12/29 06:51:21;;;;;;;72.93;40.75;;;;;;;;;;5093270;28;20059;-50
2021/12/29 06:53:47;;;;;;;75.90;40.65;;;;;;;;;;5093245;28;20484;-47
2021/12/29 06:56:14;;;;;;;85.47;45.22;;;;;;;;;;5093103;28;20020;-49
2021/12/29 06:58:40;;;;;;;72.35;42.05;;;;;;;;;;5093179;28;20032;-50
2021/12/29 07:01:06;;;;;;;74.88;42.25;;;;;;;;;;5093306;28;20039;-50
2021/12/29 07:03:32;;;;;;;65.47;37.25;;;;;;;;;;5093357;28;20358;-50
2021/12/29 07:05:59;;;;;;;60.97;34.72;;;;;;;;;;5093136;28;20035;-51
2021/12/29 07:08:25;;;;;;;59.13;33.22;;;;;;;;;;5093172;28;20495;-50
2021/12/29 07:10:51;;;;;;;75.22;41.85;;;;;;;;;;5093168;28;20031;-49
2021/12/29 07:13:17;;;;;;;68.00;37.13;;;;;;;;;;5097174;28;20465;-50
2021/12/29 07:15:43;;;;;;;77.05;39.63;;;;;;;;;;5097418;28;20373;-52
2021/12/29 07:18:10;;;;;;;83.22;39.35;;;;;;;;;;5096911;28;20028;-50
2021/12/29 07:20:36;;;;;;;71.72;38.80;;;;;;;;;;5097041;28;20449;-51
2021/12/29 07:23:02;;;;;;;84.93;47.15;;;;;;;;;;5096741;28;20032;-49
2021/12/29 07:25:29;;;;;;;64.45;35.38;;;;;;;;;;5096970;28;20046;-48
2021/12/29 07:27:57;;;;;;;71.65;39.30;;;;;;;;;;5096444;28;20051;-50
2021/12/29 07:30:23;;;;;;;88.90;52.72;;;;;;;;;;5097288;28;20377;-50
2021/12/29 07:32:50;;;;;;;86.07;50.45;;;;;;;;;;5096698;28;20026;-51
2021/12/29 07:35:16;;;;;;;87.22;49.92;;;;;;;;;;5096615;28;20028;-48
2021/12/29 07:37:42;;;;;;;86.45;48.50;;;;;;;;;;5096424;28;20048;-49
2021/12/29 07:40:09;;;;;;;95.07;53.47;;;;;;;;;;5096567;28;20024;-51
2021/12/29 07:42:39;;;;;;;86.20;48.75;;;;;;;;;;5095902;28;20017;-50
2021/12/29 07:45:09;;;;;;;84.03;46.88;;;;;;;;;;5095743;28;20032;-48
2021/12/29 07:47:36;;;;;;;93.40;49.88;;;;;;;;;;5095948;28;20020;-50
2021/12/29 07:50:03;;;;;;;75.90;42.72;;;;;;;;;;5095882;28;20027;-49
2021/12/29 07:52:29;;;;;;;82.43;45.15;;;;;;;;;;5095828;28;20044;-48
2021/12/29 07:54:56;;;;;;;99.43;53.70;;;;;;;;;;5095769;28;20012;-51
2021/12/29 07:57:24;;;;;;;79.45;44.92;;;;;;;;;;5095336;28;20024;-48
2021/12/29 07:59:50;;;;;;;75.43;43.20;;;;;;;;;;5095856;28;20044;-48
2021/12/29 08:02:18;;;;;;;72.90;40.28;;;;;;;;;;5095403;28;20119;-50
2021/12/29 08:04:44;;;;;;;132.88;39.00;;;;;;;;;;5095375;28;20036;-46
2021/12/29 08:07:11;;;;;;;85.68;33.88;;;;;;;;;;5095421;28;20038;-46
2021/12/29 08:09:37;;;;;;;68.47;37.55;;;;;;;;;;5095366;28;20016;-48
2021/12/29 08:12:03;;;;;;;55.92;33.72;;;;;;;;;;5095230;28;20066;-38
2021/12/29 08:14:29;;;;;;;74.25;41.00;;;;;;;;;;5095373;28;20027;-40
2021/12/29 08:16:55;;;;;;;84.05;44.22;;;;;;;;;;5095187;28;20027;-43
2021/12/29 08:19:21;;;;;;;79.80;44.08;;;;;;;;;;5093962;28;20032;-48
2021/12/29 08:21:47;;;;;;;60.55;36.63;;;;;;;;;;5095156;28;20016;-42
2021/12/29 08:24:13;;;;;;;53.28;32.17;;;;;;;;;;5094357;28;20024;-46
2021/12/29 08:26:39;;;;;;;61.00;34.10;;;;;;;;;;5094786;28;20039;-48
2021/12/29 08:29:10;;;;;;;59.08;34.60;;;;;;;;;;5094984;28;20554;-53
2021/12/29 08:31:36;;;;;;;56.97;33.80;;;;;;;;;;5094884;28;20031;-54
2021/12/29 08:34:02;;;;;;;62.80;35.42;;;;;;;;;;5094923;28;20027;-51
2021/12/29 08:36:31;;;;;;;58.63;34.63;;;;;;;;;;5094936;28;20016;-53
2021/12/29 08:38:57;;;;;;;66.95;39.25;;;;;;;;;;5094856;28;20024;-52
2021/12/29 08:41:23;;;;;;;73.72;41.95;;;;;;;;;;5094571;28;20481;-55
2021/12/29 08:43:49;;;;;;;70.88;40.35;;;;;;;;;;5094725;28;20036;-47
2021/12/29 08:46:18;;;;;;;90.38;50.08;;;;;;;;;;5094840;28;20074;-47
2021/12/29 08:48:47;;;;;;;78.05;41.78;;;;;;;;;;5095315;28;20055;-46
2021/12/29 08:51:14;;;;;;;76.35;40.28;;;;;;;;;;5094916;28;20428;-48
2021/12/29 08:53:40;;;;;;;79.50;43.40;;;;;;;;;;5091928;28;20026;-49
2021/12/29 08:56:07;;;;;;;108.47;56.75;;;;;;;;;;5094280;28;20020;-52
2021/12/29 08:58:33;;;;;;;79.65;43.88;;;;;;;;;;5094588;28;20024;-54
2021/12/29 09:01:00;;;;;;;77.47;43.35;;;;;;;;;;5091681;28;20470;-55
2021/12/29 09:03:26;;;;;;;85.65;46.40;;;;;;;;;;5094214;28;20035;-54
2021/12/29 09:05:52;;;;;;;81.85;46.35;;;;;;;;;;5094269;28;20016;-55
2021/12/29 09:08:19;;;;;;;96.05;52.05;;;;;;;;;;5094221;28;20068;-49
2021/12/29 09:10:47;;;;;;;113.20;58.33;;;;;;;;;;5093825;28;20024;-55
2021/12/29 09:13:14;;;;;;;75.60;44.67;;;;;;;;;;5094488;28;20031;-52
2021/12/29 09:15:40;;;;;;;68.88;41.83;;;;;;;;;;5094652;28;20044;-48
2021/12/29 09:18:06;;;;;;;60.53;36.42;;;;;;;;;;5094547;28;20020;-48
2021/12/29 09:20:33;;;;;;;70.55;41.20;;;;;;;;;;5094699;28;20024;-48
2021/12/29 09:23:05;;;;;;;69.95;40.47;;;;;;;;;;5094703;28;20457;-48
2021/12/29 09:25:31;;;;;;;70.43;38.70;;;;;;;;;;5094403;28;20064;-48
2021/12/29 09:27:57;;;;;;;74.47;41.03;;;;;;;;;;5094264;28;20044;-48
2021/12/29 09:30:25;;;;;;;78.38;42.97;;;;;;;;;;5094484;28;20115;-48
2021/12/29 09:32:51;;;;;;;80.13;43.17;;;;;;;;;;5094686;28;20031;-50
2021/12/29 09:35:20;;;;;;;75.03;40.72;;;;;;;;;;5093426;28;20024;-48
2021/12/29 09:37:46;;;;;;;82.72;46.33;;;;;;;;;;5094335;28;20016;-48
2021/12/29 09:40:12;;;;;;;81.68;44.47;;;;;;;;;;5094080;28;20508;-50
2021/12/29 09:42:38;;;;;;;83.88;44.45;;;;;;;;;;5092891;28;20466;-50
2021/12/29 09:45:06;;;;;;;114.75;57.20;;;;;;;;;;5094043;28;20040;-47
2021/12/29 09:47:33;;;;;;;120.05;57.30;;;;;;;;;;5093283;28;20024;-47
2021/12/29 09:49:59;;;;;;;125.57;60.60;;;;;;;;;;5093446;28;20055;-47
2021/12/29 09:52:29;;;;;;;101.78;52.75;;;;;;;;;;5090554;28;20020;-47
2021/12/29 09:54:56;;;;;;;120.15;52.17;;;;;;;;;;5093798;28;20028;-47
2021/12/29 09:57:22;;;;;;;125.22;54.80;;;;;;;;;;5093369;28;20477;-47
2021/12/29 09:59:48;;;;;;;149.93;60.38;;;;;;;;;;5093325;28;20106;-46
2021/12/29 10:02:14;;;;;;;123.63;55.10;;;;;;;;;;5093220;28;20493;-48
2021/12/29 10:04:41;;;;;;;112.65;53.45;;;;;;;;;;5093311;28;21352;-50
2021/12/29 10:07:11;;;;;;;101.78;52.47;;;;;;;;;;5091055;28;20028;-49
2021/12/29 10:09:37;;;;;;;100.05;53.78;;;;;;;;;;5092891;28;20024;-49
2021/12/29 10:12:11;;;;;;;109.43;59.75;;;;;;;;;;5093234;28;20365;-49
2021/12/29 10:14:38;;;;;;;102.40;53.88;;;;;;;;;;5092210;28;20051;-47
2021/12/29 10:17:13;;;;;;;104.53;59.15;;;;;;;;;;5091337;28;20032;-46
2021/12/29 10:19:39;;;;;;;110.22;61.10;;;;;;;;;;5092988;28;20027;-48
2021/12/29 10:22:05;;;;;;;104.47;58.78;;;;;;;;;;5092749;28;20074;-51
2021/12/29 10:24:31;;;;;;;73.88;42.83;;;;;;;;;;5091900;28;20089;-46
2021/12/29 10:26:58;;;;;;;66.05;40.67;;;;;;;;;;5091736;28;20098;-48
2021/12/29 10:29:27;;;;;;;77.65;45.80;;;;;;;;;;5091887;28;20024;-47
2021/12/29 10:32:01;;;;;;;59.92;36.47;;;;;;;;;;5091837;28;20020;-48
2021/12/29 10:34:29;;;;;;;57.08;34.55;;;;;;;;;;5089253;28;20024;-49
2021/12/29 10:37:09;;;;;;;64.78;39.17;;;;;;;;;;5092531;28;20020;-49
2021/12/29 10:39:37;;;;;;;74.88;44.55;;;;;;;;;;5090428;28;20035;-47
2021/12/29 10:42:06;;;;;;;78.13;44.67;;;;;;;;;;5092822;28;20078;-47
2021/12/29 10:44:37;;;;;;;82.55;46.55;;;;;;;;;;5092620;28;20032;-49
2021/12/29 10:47:13;;;;;;;106.10;58.03;;;;;;;;;;5094994;28;20020;-48
2021/12/29 10:49:48;;;;;;;109.95;57.30;;;;;;;;;;5094898;28;20245;-48
2021/12/29 10:52:14;;;;;;;120.30;64.57;;;;;;;;;;5094374;28;20030;-47
2021/12/29 10:54:43;;;;;;;122.20;66.40;;;;;;;;;;5096860;28;20088;-48
2021/12/29 10:57:12;;;;;;;85.38;47.75;;;;;;;;;;5096668;28;20061;-52
2021/12/29 10:59:42;;;;;;;66.75;38.45;;;;;;;;;;5096646;28;20504;-48
2021/12/29 11:02:09;;;;;;;61.13;36.08;;;;;;;;;;5096576;28;20035;-48
2021/12/29 11:04:36;;;;;;;56.58;34.83;;;;;;;;;;5094214;28;20067;-46
2021/12/29 11:07:02;;;;;;;64.07;37.53;;;;;;;;;;5097092;28;20032;-48
2021/12/29 11:09:33;;;;;;;65.00;38.92;;;;;;;;;;5097168;28;20024;-48
2021/12/29 11:12:01;;;;;;;70.95;42.88;;;;;;;;;;5097040;28;20020;-48
2021/12/29 11:14:30;;;;;;;71.25;41.05;;;;;;;;;;5097021;28;20024;-48
2021/12/29 11:17:05;;;;;;;84.45;42.75;;;;;;;;;;5096684;28;20095;-49
2021/12/29 11:19:31;;;;;;;58.33;35.63;;;;;;;;;;5096946;28;20433;-53
2021/12/29 11:22:11;;;;;;;53.30;31.63;;;;;;;;;;5096816;28;20020;-49
2021/12/29 11:24:42;;;;;;;52.20;31.33;;;;;;;;;;5078840;28;20468;-51
2021/12/29 11:27:10;;;;;;;53.72;32.25;;;;;;;;;;5066754;28;20121;-49
2021/12/29 11:29:36;;;;;;;51.17;33.25;;;;;;;;;;5065982;28;20039;-51
2021/12/29 11:32:07;;;;;;;65.25;41.88;;;;;;;;;;5064574;28;20047;-51
2021/12/29 11:34:34;;;;;;;69.05;42.42;;;;;;;;;;5066583;28;20363;-52
2021/12/29 11:37:07;;;;;;;75.53;44.63;;;;;;;;;;5065648;28;20034;-50
2021/12/29 11:39:35;;;;;;;59.05;36.75;;;;;;;;;;5065573;28;20083;-49
2021/12/29 11:42:01;;;;;;;56.58;35.28;;;;;;;;;;5065409;28;20021;-52
2021/12/29 11:44:29;;;;;;;55.83;33.75;;;;;;;;;;5066484;28;21082;-49
2021/12/29 11:46:55;;;;;;;55.22;32.55;;;;;;;;;;5066515;28;20024;-49
2021/12/29 11:49:24;;;;;;;59.25;32.65;;;;;;;;;;5065790;28;20019;-50
2021/12/29 11:51:53;;;;;;;45.92;29.80;;;;;;;;;;5065350;28;20036;-49
2021/12/29 11:54:22;;;;;;;52.38;32.60;;;;;;;;;;5065318;28;20021;-52
2021/12/29 11:56:48;;;;;;;55.30;35.40;;;;;;;;;;5065907;28;20380;-50
2021/12/29 11:59:15;;;;;;;78.47;47.85;;;;;;;;;;5065349;28;20054;-50
2021/12/29 12:01:41;;;;;;;76.63;45.22;;;;;;;;;;5065408;28;20512;-50
2021/12/29 12:04:11;;;;;;;81.10;46.70;;;;;;;;;;5065257;28;20070;-50
2021/12/29 12:06:41;;;;;;;72.95;45.05;;;;;;;;;;5065369;28;20074;-50
2021/12/29 12:09:10;;;;;;;88.03;50.78;;;;;;;;;;5066431;28;20152;-49
2021/12/29 12:11:37;;;;;;;97.13;55.65;;;;;;;;;;5066071;28;20056;-48
2021/12/29 12:14:04;;;;;;;120.88;67.15;;;;;;;;;;5064862;28;20035;-51
2021/12/29 12:16:30;;;;;;;101.05;59.58;;;;;;;;;;5065014;28;20481;-48
2021/12/29 12:19:00;;;;;;;75.97;44.97;;;;;;;;;;5064802;28;20067;-51
2021/12/29 12:21:30;;;;;;;70.95;42.00;;;;;;;;;;5064997;28;20021;-51
2021/12/29 12:24:23;;;;;;;64.23;40.60;;;;;;;;;;5066063;28;20027;-51
2021/12/29 12:26:58;;;;;;;63.30;37.53;;;;;;;;;;5065026;28;20037;-49
2021/12/29 12:29:27;;;;;;;61.28;38.03;;;;;;;;;;5064382;28;20151;-50
2021/12/29 12:32:06;;;;;;;77.50;45.28;;;;;;;;;;5064290;28;20803;-50
2021/12/29 12:34:33;;;;;;;74.72;43.65;;;;;;;;;;5064158;28;20031;-51
2021/12/29 12:37:01;;;;;;;75.78;44.22;;;;;;;;;;5064285;28;20038;-51
2021/12/29 12:39:30;;;;;;;72.72;43.45;;;;;;;;;;5063992;28;20106;-51
2021/12/29 12:41:58;;;;;;;83.75;48.88;;;;;;;;;;5063957;28;20519;-52
2021/12/29 12:44:32;;;;;;;86.68;49.20;;;;;;;;;;5065224;28;20071;-51
2021/12/29 12:47:07;;;;;;;82.88;50.05;;;;;;;;;;5063961;28;20386;-48
2021/12/29 12:49:40;;;;;;;76.93;45.53;;;;;;;;;;5065316;28;20127;-50
2021/12/29 12:52:08;;;;;;;74.30;42.65;;;;;;;;;;5063942;28;20175;-50
2021/12/29 12:54:36;;;;;;;88.10;48.05;;;;;;;;;;5064787;28;20053;-49
2021/12/29 12:57:02;;;;;;;83.13;45.45;;;;;;;;;;5065205;28;20086;-50
2021/12/29 12:59:38;;;;;;;62.15;37.92;;;;;;;;;;5064026;28;20080;-51
2021/12/29 13:02:21;;;;;;;58.40;36.67;;;;;;;;;;5064662;28;20366;-51
2021/12/29 13:05:08;;;;;;;56.97;35.75;;;;;;;;;;5064658;28;20158;-49
2021/12/29 13:07:34;;;;;;;54.75;36.20;;;;;;;;;;5064596;28;20028;-51
2021/12/29 13:10:00;;;;;;;56.15;34.60;;;;;;;;;;5062784;28;20378;-50
2021/12/29 13:12:30;;;;;;;57.60;36.63;;;;;;;;;;5061948;28;20036;-50
2021/12/29 13:15:08;;;;;;;58.22;36.95;;;;;;;;;;5063354;28;20047;-50
2021/12/29 13:17:34;;;;;;;58.03;37.22;;;;;;;;;;5063317;28;20024;-51
2021/12/29 13:20:00;;;;;;;54.65;36.80;;;;;;;;;;5063061;28;20513;-50
2021/12/29 13:22:33;;;;;;;54.53;35.33;;;;;;;;;;5063275;28;20025;-49
2021/12/29 13:25:28;;;;;;;57.47;38.25;;;;;;;;;;5063999;28;20501;-51
2021/12/29 13:28:03;;;;;;;58.85;37.60;;;;;;;;;;5053238;28;20071;-51
2021/12/29 13:30:41;;;;;;;54.38;36.45;;;;;;;;;;5053951;28;20515;-52
2021/12/29 13:33:07;;;;;;;60.45;37.55;;;;;;;;;;5052904;28;20442;-51
2021/12/29 13:35:37;;;;;;;65.20;39.58;;;;;;;;;;5053581;28;20103;-50
2021/12/29 13:38:07;;;;;;;72.53;41.28;;;;;;;;;;5053327;28;20883;-51
2021/12/29 13:40:38;;;;;;;122.22;64.90;;;;;;;;;;5053317;28;20024;-52
2021/12/29 13:43:09;;;;;;;81.33;46.30;;;;;;;;;;5053443;28;20441;-52
2021/12/29 13:45:35;;;;;;;87.38;51.80;;;;;;;;;;5052855;28;20054;-50
2021/12/29 13:48:01;;;;;;;86.82;52.00;;;;;;;;;;5053215;28;20101;-51
2021/12/29 13:50:27;;;;;;;94.90;55.47;;;;;;;;;;5053004;28;20025;-51
2021/12/29 13:52:55;;;;;;;89.05;52.95;;;;;;;;;;5053400;28;20039;-51
2021/12/29 13:55:25;;;;;;;84.63;50.90;;;;;;;;;;5053266;28;20059;-49
2021/12/29 13:57:53;;;;;;;85.72;50.33;;;;;;;;;;5053002;28;20080;-50
2021/12/29 14:00:20;;;;;;;87.07;51.35;;;;;;;;;;5052679;28;20173;-51
2021/12/29 14:02:46;;;;;;;86.60;51.53;;;;;;;;;;5052793;28;20028;-52
2021/12/29 14:05:13;;;;;;;106.40;61.42;;;;;;;;;;5061272;28;20218;-51
2021/12/29 14:07:39;;;;;;;96.50;57.53;;;;;;;;;;5062430;28;20146;-50
2021/12/29 14:10:06;;;;;;;78.65;49.22;;;;;;;;;;5062503;28;20033;-51
2021/12/29 14:12:35;;;;;;;91.20;51.72;;;;;;;;;;5062310;28;20020;-50
2021/12/29 14:15:09;;;;;;;87.35;53.08;;;;;;;;;;5062311;28;20066;-50
2021/12/29 14:17:40;;;;;;;91.40;52.85;;;;;;;;;;5062328;28;20020;-50
2021/12/29 14:20:10;;;;;;;98.87;54.73;;;;;;;;;;5062409;28;20039;-49
2021/12/29 14:22:36;;;;;;;94.78;56.28;;;;;;;;;;5061823;28;20100;-53